createdAt,value
2023-05-24T00:00:02.459Z, 36.90
2023-05-24T00:01:02.461Z, 36.90
2023-05-24T00:02:02.476Z, 36.93
2023-05-24T00:03:02.577Z, 36.90
2023-05-24T00:04:02.690Z, 36.86
2023-05-24T00:05:02.636Z, 36.86
2023-05-24T00:06:02.511Z, 36.88
2023-05-24T00:07:02.525Z, 36.89
2023-05-24T00:08:02.520Z, 36.87
2023-05-24T00:09:02.548Z, 36.86
2023-05-24T00:10:02.577Z, 36.84
2023-05-24T00:11:02.555Z, 36.84
2023-05-24T00:12:02.567Z, 36.84
2023-05-24T00:13:02.563Z, 36.84
2023-05-24T00:14:02.590Z, 36.83
2023-05-24T00:15:02.611Z, 36.82
2023-05-24T00:16:02.696Z, 36.82
2023-05-24T00:17:02.705Z, 36.76
2023-05-24T00:18:02.723Z, 36.73
2023-05-24T00:19:02.684Z, 36.72
2023-05-24T00:20:03.949Z, 36.70
2023-05-24T00:21:02.769Z, 36.68
2023-05-24T00:22:02.806Z, 36.67
2023-05-24T00:23:02.765Z, 36.71
2023-05-24T00:24:02.762Z, 36.70
2023-05-24T00:25:02.813Z, 36.68
2023-05-24T00:26:02.792Z, 36.64
2023-05-24T00:27:02.798Z, 36.63
2023-05-24T00:28:02.814Z, 36.61
2023-05-24T00:29:02.803Z, 36.63
2023-05-24T00:30:02.801Z, 36.63
2023-05-24T00:31:02.807Z, 36.64
2023-05-24T00:32:02.870Z, 36.60
2023-05-24T00:33:02.975Z, 36.57
2023-05-24T00:34:02.850Z, 36.62
2023-05-24T00:35:02.834Z, 36.60
2023-05-24T00:36:02.874Z, 36.58
2023-05-24T00:37:02.872Z, 36.52
2023-05-24T00:38:02.992Z, 36.48
2023-05-24T00:39:02.932Z, 36.48
2023-05-24T00:40:02.986Z, 36.47
2023-05-24T00:41:02.964Z, 36.50
2023-05-24T00:42:02.983Z, 36.46
2023-05-24T00:43:02.987Z, 36.44
2023-05-24T00:44:02.987Z, 36.42
2023-05-24T00:45:02.978Z, 36.40
2023-05-24T00:46:03.020Z, 36.45
2023-05-24T00:47:02.991Z, 36.44
2023-05-24T00:48:03.043Z, 36.40
2023-05-24T00:49:03.102Z, 36.37
2023-05-24T00:50:03.065Z, 36.33
2023-05-24T00:51:03.123Z, 36.35
2023-05-24T00:52:03.108Z, 36.31
2023-05-24T00:53:03.106Z, 36.30
2023-05-24T00:54:03.112Z, 36.29
2023-05-24T00:55:03.101Z, 36.27
2023-05-24T00:56:03.103Z, 36.24
2023-05-24T00:57:03.120Z, 36.22
2023-05-24T00:58:03.150Z, 36.20
2023-05-24T00:59:03.123Z, 36.17
2023-05-24T01:00:03.218Z, 36.14
2023-05-24T01:01:03.207Z, 36.17
2023-05-24T01:02:03.382Z, 36.19
2023-05-24T01:03:03.272Z, 36.19
2023-05-24T01:04:03.196Z, 36.19
2023-05-24T01:05:03.218Z, 36.16
2023-05-24T01:06:03.226Z, 36.17
2023-05-24T01:07:03.244Z, 36.17
2023-05-24T01:08:03.273Z, 36.17
2023-05-24T01:09:03.252Z, 36.13
2023-05-24T01:10:03.291Z, 36.12
2023-05-24T01:11:03.297Z, 36.14
2023-05-24T01:12:03.331Z, 36.10
2023-05-24T01:13:03.340Z, 36.06
2023-05-24T01:14:03.408Z, 36.07
2023-05-24T01:15:03.345Z, 36.05
2023-05-24T01:16:03.426Z, 36.05
2023-05-24T01:17:03.400Z, 36.04
2023-05-24T01:18:03.444Z, 36.05
2023-05-24T01:19:03.433Z, 36.04
2023-05-24T01:20:03.460Z, 36.03
2023-05-24T01:21:03.501Z, 36.02
2023-05-24T01:22:03.557Z, 35.97
2023-05-24T01:23:03.482Z, 35.98
2023-05-24T01:24:03.471Z, 36.01
2023-05-24T01:25:03.480Z, 35.98
2023-05-24T01:26:03.494Z, 35.93
2023-05-24T01:27:03.512Z, 35.93
2023-05-24T01:28:03.568Z, 35.91
2023-05-24T01:29:03.546Z, 35.92
2023-05-24T01:30:03.550Z, 35.89
2023-05-24T01:31:03.607Z, 35.87
2023-05-24T01:32:03.575Z, 35.88
2023-05-24T01:33:03.726Z, 35.89
2023-05-24T01:34:03.615Z, 35.87
2023-05-24T01:35:03.672Z, 35.86
2023-05-24T01:36:03.640Z, 35.89
2023-05-24T01:37:03.645Z, 35.83
2023-05-24T01:38:03.629Z, 35.81
2023-05-24T01:39:03.651Z, 35.80
2023-05-24T01:40:03.657Z, 35.80
2023-05-24T01:41:03.655Z, 35.76
2023-05-24T01:42:03.681Z, 35.76
2023-05-24T01:43:03.692Z, 35.74
2023-05-24T01:44:03.697Z, 35.78
2023-05-24T01:45:03.712Z, 35.76
2023-05-24T01:46:03.790Z, 35.73
2023-05-24T01:47:03.848Z, 35.72
2023-05-24T01:48:03.826Z, 35.71
2023-05-24T01:49:03.788Z, 35.69
2023-05-24T01:50:03.811Z, 35.66
2023-05-24T01:51:03.808Z, 35.68
2023-05-24T01:52:03.875Z, 35.66
2023-05-24T01:53:03.821Z, 35.63
2023-05-24T01:54:03.813Z, 35.60
2023-05-24T01:55:03.861Z, 35.58
2023-05-24T01:56:03.863Z, 35.57
2023-05-24T01:57:03.856Z, 35.56
2023-05-24T01:58:03.943Z, 35.54
2023-05-24T01:59:03.904Z, 35.58
2023-05-24T02:00:03.985Z, 35.55
2023-05-24T02:01:04.042Z, 35.53
2023-05-24T02:02:04.046Z, 35.52
2023-05-24T02:03:04.051Z, 35.51
2023-05-24T02:04:03.975Z, 35.54
2023-05-24T02:05:03.973Z, 35.52
2023-05-24T02:06:03.966Z, 35.53
2023-05-24T02:07:04.055Z, 35.51
2023-05-24T02:08:03.998Z, 35.50
2023-05-24T02:09:04.035Z, 35.44
2023-05-24T02:10:04.018Z, 35.43
2023-05-24T02:11:04.028Z, 35.45
2023-05-24T02:12:04.039Z, 35.44
2023-05-24T02:13:04.043Z, 35.41
2023-05-24T02:14:04.084Z, 35.40
2023-05-24T02:15:04.060Z, 35.40
2023-05-24T02:16:04.086Z, 35.38
2023-05-24T02:17:04.253Z, 35.39
2023-05-24T02:18:04.229Z, 35.38
2023-05-24T02:19:04.113Z, 35.39
2023-05-24T02:20:04.167Z, 35.33
2023-05-24T02:21:04.188Z, 35.32
2023-05-24T02:22:04.191Z, 35.32
2023-05-24T02:23:04.234Z, 35.30
2023-05-24T02:24:04.222Z, 35.29
2023-05-24T02:25:04.223Z, 35.30
2023-05-24T02:26:04.265Z, 35.28
2023-05-24T02:27:04.265Z, 35.25
2023-05-24T02:28:04.258Z, 35.27
2023-05-24T02:29:04.319Z, 35.26
2023-05-24T02:30:04.306Z, 35.25
2023-05-24T02:31:04.362Z, 35.18
2023-05-24T02:32:04.336Z, 35.21
2023-05-24T02:33:04.390Z, 35.20
2023-05-24T02:34:04.319Z, 35.20
2023-05-24T02:35:04.336Z, 35.17
2023-05-24T02:36:04.334Z, 35.12
2023-05-24T02:37:04.354Z, 35.17
2023-05-24T02:38:04.365Z, 35.15
2023-05-24T02:39:04.389Z, 35.12
2023-05-24T02:40:04.458Z, 35.11
2023-05-24T02:41:04.435Z, 35.10
2023-05-24T02:42:04.423Z, 35.12
2023-05-24T02:43:04.423Z, 35.11
2023-05-24T02:44:04.429Z, 35.08
2023-05-24T02:45:04.438Z, 35.05
2023-05-24T02:46:04.480Z, 35.07
2023-05-24T02:47:04.495Z, 35.06
2023-05-24T02:48:04.578Z, 35.03
2023-05-24T02:49:04.549Z, 35.04
2023-05-24T02:50:04.517Z, 35.04
2023-05-24T02:51:04.575Z, 35.03
2023-05-24T02:52:04.573Z, 35.03
2023-05-24T02:53:04.566Z, 35.02
2023-05-24T02:54:04.584Z, 35.02
2023-05-24T02:55:04.567Z, 34.99
2023-05-24T02:56:04.578Z, 34.97
2023-05-24T02:57:04.627Z, 34.95
2023-05-24T02:58:04.614Z, 34.93
2023-05-24T02:59:04.665Z, 34.91
2023-05-24T03:00:04.660Z, 34.93
2023-05-24T03:01:04.684Z, 34.90
2023-05-24T03:02:04.729Z, 34.92
2023-05-24T03:03:04.813Z, 34.93
2023-05-24T03:04:04.798Z, 34.93
2023-05-24T03:05:04.705Z, 34.91
2023-05-24T03:06:04.707Z, 34.89
2023-05-24T03:07:04.714Z, 34.91
2023-05-24T03:08:04.781Z, 34.88
2023-05-24T03:09:04.762Z, 34.91
2023-05-24T03:10:04.764Z, 34.92
2023-05-24T03:11:04.772Z, 34.88
2023-05-24T03:12:04.762Z, 34.82
2023-05-24T03:13:04.900Z, 34.82
2023-05-24T03:14:04.840Z, 34.78
2023-05-24T03:15:04.838Z, 34.78
2023-05-24T03:16:04.908Z, 34.80
2023-05-24T03:17:04.840Z, 34.80
2023-05-24T03:18:04.880Z, 34.79
2023-05-24T03:19:05.766Z, 34.76
2023-05-24T03:20:05.023Z, 34.76
2023-05-24T03:21:05.003Z, 34.72
2023-05-24T03:22:04.941Z, 34.72
2023-05-24T03:23:04.957Z, 34.72
2023-05-24T03:24:04.948Z, 34.73
2023-05-24T03:25:05.056Z, 34.69
2023-05-24T03:26:05.005Z, 34.67
2023-05-24T03:27:05.068Z, 34.65
2023-05-24T03:28:05.054Z, 34.68
2023-05-24T03:29:05.031Z, 34.70
2023-05-24T03:30:05.037Z, 34.67
2023-05-24T03:31:05.078Z, 34.74
2023-05-24T03:32:05.190Z, 35.42
2023-05-24T03:33:05.113Z, 36.17
2023-05-24T03:34:05.060Z, 37.75
2023-05-24T03:35:05.084Z, 38.86
2023-05-24T03:36:05.188Z, 39.67
2023-05-24T03:37:05.178Z, 40.34
2023-05-24T03:38:05.190Z, 40.89
2023-05-24T03:39:05.156Z, 41.37
2023-05-24T03:40:05.268Z, 41.84
2023-05-24T03:41:05.165Z, 42.25
2023-05-24T03:42:05.405Z, 42.61
2023-05-24T03:43:05.411Z, 42.99
2023-05-24T03:44:05.417Z, 43.35
2023-05-24T03:45:05.427Z, 43.69
2023-05-24T03:46:05.437Z, 43.99
2023-05-24T03:47:05.406Z, 44.19
2023-05-24T03:48:05.473Z, 44.40
2023-05-24T03:49:05.415Z, 44.54
2023-05-24T03:50:05.423Z, 44.81
2023-05-24T03:51:05.405Z, 45.00
2023-05-24T03:52:05.396Z, 45.20
2023-05-24T03:53:05.421Z, 45.41
2023-05-24T03:54:05.426Z, 45.54
2023-05-24T03:55:05.402Z, 45.58
2023-05-24T03:56:05.422Z, 45.64
2023-05-24T03:57:05.406Z, 45.71
2023-05-24T03:58:05.395Z, 45.89
2023-05-24T03:59:05.454Z, 46.14
2023-05-24T04:00:05.433Z, 46.27
2023-05-24T04:01:05.440Z, 46.19
2023-05-24T04:02:05.466Z, 46.20
2023-05-24T04:03:05.475Z, 46.51
2023-05-24T04:04:05.539Z, 46.66
2023-05-24T04:05:05.460Z, 46.95
2023-05-24T04:06:05.539Z, 47.13
2023-05-24T04:07:05.507Z, 47.11
2023-05-24T04:08:05.523Z, 46.96
2023-05-24T04:09:05.520Z, 46.74
2023-05-24T04:10:05.575Z, 46.58
2023-05-24T04:11:05.563Z, 46.42
2023-05-24T04:12:05.599Z, 46.32
2023-05-24T04:13:05.573Z, 46.47
2023-05-24T04:14:05.655Z, 46.60
2023-05-24T04:15:05.592Z, 46.71
2023-05-24T04:16:05.593Z, 46.77
2023-05-24T04:17:05.719Z, 46.83
2023-05-24T04:18:05.726Z, 46.79
2023-05-24T04:19:05.631Z, 46.79
2023-05-24T04:20:05.653Z, 46.73
2023-05-24T04:21:05.703Z, 46.61
2023-05-24T04:22:05.674Z, 46.40
2023-05-24T04:23:05.712Z, 46.18
2023-05-24T04:24:05.695Z, 45.97
2023-05-24T04:25:05.716Z, 45.82
2023-05-24T04:26:05.696Z, 45.76
2023-05-24T04:27:05.721Z, 45.63
2023-05-24T04:28:05.781Z, 45.52
2023-05-24T04:29:05.773Z, 45.38
2023-05-24T04:30:05.781Z, 45.28
2023-05-24T04:31:05.778Z, 45.19
2023-05-24T04:32:05.770Z, 45.15
2023-05-24T04:33:05.816Z, 45.14
2023-05-24T04:34:05.810Z, 45.10
2023-05-24T04:35:05.852Z, 45.06
2023-05-24T04:36:05.862Z, 45.01
2023-05-24T04:37:05.922Z, 44.93
2023-05-24T04:38:05.882Z, 44.83
2023-05-24T04:39:05.898Z, 44.86
2023-05-24T04:40:05.896Z, 44.85
2023-05-24T04:41:05.879Z, 44.82
2023-05-24T04:42:05.898Z, 44.73
2023-05-24T04:43:05.939Z, 44.74
2023-05-24T04:44:05.929Z, 44.72
2023-05-24T04:45:05.922Z, 44.72
2023-05-24T04:46:08.825Z, 44.63
2023-05-24T04:47:05.982Z, 44.64
2023-05-24T04:48:06.017Z, 44.59
2023-05-24T04:49:06.019Z, 44.57
2023-05-24T04:50:06.067Z, 44.53
2023-05-24T04:51:06.055Z, 44.51
2023-05-24T04:52:06.025Z, 44.52
2023-05-24T04:53:06.022Z, 44.50
2023-05-24T04:54:06.043Z, 44.45
2023-05-24T04:55:06.053Z, 44.43
2023-05-24T04:56:06.050Z, 44.43
2023-05-24T04:57:06.068Z, 44.47
2023-05-24T04:58:06.076Z, 44.44
2023-05-24T04:59:06.090Z, 44.44
2023-05-24T05:00:06.117Z, 44.41
2023-05-24T05:01:06.125Z, 44.40
2023-05-24T05:02:06.268Z, 44.33
2023-05-24T05:03:06.231Z, 44.28
2023-05-24T05:04:06.340Z, 44.23
2023-05-24T05:05:06.192Z, 44.23
2023-05-24T05:06:06.175Z, 44.21
2023-05-24T05:07:06.268Z, 44.23
2023-05-24T05:08:06.230Z, 44.29
2023-05-24T05:09:06.268Z, 44.25
2023-05-24T05:10:06.255Z, 44.19
2023-05-24T05:11:06.311Z, 44.15
2023-05-24T05:12:06.298Z, 44.18
2023-05-24T05:13:06.320Z, 44.20
2023-05-24T05:14:06.293Z, 44.18
2023-05-24T05:15:06.299Z, 44.12
2023-05-24T05:16:06.308Z, 44.07
2023-05-24T05:17:06.292Z, 44.02
2023-05-24T05:18:06.374Z, 44.58
2023-05-24T05:19:06.332Z, 44.80
2023-05-24T05:20:06.488Z, 44.64
2023-05-24T05:21:06.348Z, 44.53
2023-05-24T05:22:06.368Z, 44.41
2023-05-24T05:23:06.504Z, 44.37
2023-05-24T05:24:06.388Z, 44.25
2023-05-24T05:25:06.465Z, 44.12
2023-05-24T05:26:06.428Z, 43.97
2023-05-24T05:27:06.491Z, 43.89
2023-05-24T05:28:06.472Z, 43.79
2023-05-24T05:29:06.467Z, 43.75
2023-05-24T05:30:06.578Z, 43.73
2023-05-24T05:31:06.508Z, 43.69
2023-05-24T05:32:06.616Z, 43.64
2023-05-24T05:33:06.566Z, 43.58
2023-05-24T05:34:06.531Z, 43.51
2023-05-24T05:35:06.594Z, 43.45
2023-05-24T05:36:06.569Z, 43.42
2023-05-24T05:37:06.580Z, 43.42
2023-05-24T05:38:06.573Z, 43.35
2023-05-24T05:39:06.571Z, 43.32
2023-05-24T05:40:06.639Z, 43.30
2023-05-24T05:41:06.629Z, 43.25
2023-05-24T05:42:06.617Z, 43.23
2023-05-24T05:43:06.632Z, 43.23
2023-05-24T05:44:06.622Z, 43.23
2023-05-24T05:45:06.710Z, 43.18
2023-05-24T05:46:06.712Z, 43.09
2023-05-24T05:47:06.724Z, 43.12
2023-05-24T05:48:06.742Z, 43.10
2023-05-24T05:49:06.722Z, 43.12
2023-05-24T05:50:06.707Z, 43.20
2023-05-24T05:51:06.717Z, 43.17
2023-05-24T05:52:06.722Z, 43.14
2023-05-24T05:53:06.736Z, 43.12
2023-05-24T05:54:06.752Z, 43.15
2023-05-24T05:55:06.839Z, 43.15
2023-05-24T05:56:06.857Z, 43.14
2023-05-24T05:57:06.843Z, 43.13
2023-05-24T05:58:06.836Z, 43.10
2023-05-24T05:59:06.851Z, 43.07
2023-05-24T06:00:06.845Z, 43.05
2023-05-24T06:01:06.912Z, 43.00
2023-05-24T06:02:07.085Z, 42.95
2023-05-24T06:03:07.028Z, 42.89
2023-05-24T06:04:06.918Z, 42.86
2023-05-24T06:05:06.954Z, 42.86
2023-05-24T06:06:06.928Z, 42.81
2023-05-24T06:07:06.921Z, 42.80
2023-05-24T06:08:06.932Z, 42.76
2023-05-24T06:09:06.924Z, 42.77
2023-05-24T06:10:06.953Z, 42.76
2023-05-24T06:11:06.948Z, 42.70
2023-05-24T06:12:06.967Z, 42.72
2023-05-24T06:13:06.976Z, 42.69
2023-05-24T06:14:07.074Z, 42.72
2023-05-24T06:15:07.064Z, 42.72
2023-05-24T06:16:07.129Z, 42.73
2023-05-24T06:17:07.065Z, 42.71
2023-05-24T06:18:07.119Z, 42.70
2023-05-24T06:19:07.097Z, 42.65
2023-05-24T06:20:07.116Z, 42.68
2023-05-24T06:21:07.122Z, 42.57
2023-05-24T06:22:07.251Z, 42.58
2023-05-24T06:23:07.167Z, 42.56
2023-05-24T06:24:07.153Z, 42.51
2023-05-24T06:25:07.214Z, 42.49
2023-05-24T06:26:07.183Z, 42.44
2023-05-24T06:27:07.176Z, 42.38
2023-05-24T06:28:07.181Z, 42.39
2023-05-24T06:29:07.194Z, 42.37
2023-05-24T06:30:07.343Z, 42.30
2023-05-24T06:31:07.277Z, 42.28
2023-05-24T06:32:07.282Z, 42.28
2023-05-24T06:33:07.313Z, 42.27
2023-05-24T06:34:07.246Z, 42.25
2023-05-24T06:35:07.257Z, 42.24
2023-05-24T06:36:07.258Z, 42.18
2023-05-24T06:37:07.332Z, 42.14
2023-05-24T06:38:07.298Z, 42.05
2023-05-24T06:39:07.307Z, 42.13
2023-05-24T06:40:07.361Z, 42.08
2023-05-24T06:41:07.347Z, 42.08
2023-05-24T06:42:07.448Z, 41.99
2023-05-24T06:43:07.396Z, 42.04
2023-05-24T06:44:07.436Z, 42.04
2023-05-24T06:45:07.429Z, 42.03
2023-05-24T06:46:07.488Z, 42.00
2023-05-24T06:47:07.579Z, 42.02
2023-05-24T06:48:07.545Z, 41.93
2023-05-24T06:49:07.539Z, 41.91
2023-05-24T06:50:07.459Z, 41.87
2023-05-24T06:51:07.469Z, 41.91
2023-05-24T06:52:07.475Z, 41.92
2023-05-24T06:53:07.506Z, 41.81
2023-05-24T06:54:07.497Z, 41.76
2023-05-24T06:55:07.614Z, 41.76
2023-05-24T06:56:07.553Z, 41.70
2023-05-24T06:57:07.603Z, 41.71
2023-05-24T06:58:07.591Z, 41.72
2023-05-24T06:59:07.606Z, 41.70
2023-05-24T07:00:07.588Z, 41.61
2023-05-24T07:01:07.614Z, 41.64
2023-05-24T07:02:07.595Z, 41.63
2023-05-24T07:03:07.905Z, 41.65
2023-05-24T07:04:07.688Z, 41.59
2023-05-24T07:05:07.632Z, 41.56
2023-05-24T07:06:07.695Z, 41.55
2023-05-24T07:07:07.674Z, 41.49
2023-05-24T07:08:07.680Z, 41.47
2023-05-24T07:09:07.678Z, 41.42
2023-05-24T07:10:07.671Z, 41.44
2023-05-24T07:11:07.823Z, 41.41
2023-05-24T07:12:09.110Z, 41.39
2023-05-24T07:13:07.805Z, 41.33
2023-05-24T07:14:07.793Z, 41.32
2023-05-24T07:15:07.779Z, 41.41
2023-05-24T07:16:07.797Z, 41.37
2023-05-24T07:17:07.843Z, 41.35
2023-05-24T07:18:07.983Z, 41.35
2023-05-24T07:19:07.835Z, 41.32
2023-05-24T07:20:07.849Z, 41.29
2023-05-24T07:21:07.874Z, 41.31
2023-05-24T07:22:07.828Z, 41.26
2023-05-24T07:23:07.909Z, 41.21
2023-05-24T07:24:07.878Z, 41.16
2023-05-24T07:25:07.930Z, 41.16
2023-05-24T07:26:07.905Z, 41.14
2023-05-24T07:27:07.958Z, 41.15
2023-05-24T07:28:07.916Z, 41.11
2023-05-24T07:29:07.983Z, 41.06
2023-05-24T07:30:16.482Z, 41.06
2023-05-24T07:31:08.069Z, 41.04
2023-05-24T07:32:08.035Z, 41.11
2023-05-24T07:33:08.062Z, 41.07
2023-05-24T07:34:08.008Z, 41.04
2023-05-24T07:35:07.993Z, 40.97
2023-05-24T07:36:08.065Z, 40.95
2023-05-24T07:37:08.046Z, 40.87
2023-05-24T07:38:08.098Z, 40.89
2023-05-24T07:39:08.057Z, 40.93
2023-05-24T07:40:08.066Z, 40.85
2023-05-24T07:41:08.059Z, 40.87
2023-05-24T07:42:08.131Z, 40.86
2023-05-24T07:43:08.107Z, 40.82
2023-05-24T07:44:08.101Z, 40.81
2023-05-24T07:45:08.184Z, 40.80
2023-05-24T07:46:08.267Z, 40.75
2023-05-24T07:47:08.157Z, 40.70
2023-05-24T07:48:08.188Z, 40.71
2023-05-24T07:49:08.158Z, 40.70
2023-05-24T07:50:08.226Z, 40.70
2023-05-24T07:51:08.211Z, 40.68
2023-05-24T07:52:08.270Z, 40.63
2023-05-24T07:53:08.245Z, 40.54
2023-05-24T07:54:08.306Z, 40.52
2023-05-24T07:55:08.517Z, 40.46
2023-05-24T07:56:08.283Z, 40.52
2023-05-24T07:57:09.533Z, 40.50
2023-05-24T07:58:08.310Z, 40.47
2023-05-24T07:59:08.394Z, 40.41
2023-05-24T08:00:08.373Z, 40.41
2023-05-24T08:01:08.415Z, 40.36
2023-05-24T08:02:08.394Z, 40.34
2023-05-24T08:03:08.541Z, 40.31
2023-05-24T08:04:08.514Z, 40.34
2023-05-24T08:05:08.416Z, 40.29
2023-05-24T08:06:08.513Z, 40.25
2023-05-24T08:07:10.787Z, 40.28
2023-05-24T08:08:08.501Z, 40.27
2023-05-24T08:09:08.462Z, 40.29
2023-05-24T08:10:08.538Z, 40.25
2023-05-24T08:11:08.511Z, 40.25
2023-05-24T08:12:08.543Z, 40.19
2023-05-24T08:13:08.532Z, 40.17
2023-05-24T08:14:08.546Z, 40.17
2023-05-24T08:15:08.608Z, 40.17
2023-05-24T08:16:08.637Z, 40.12
2023-05-24T08:17:08.621Z, 40.11
2023-05-24T08:18:08.651Z, 40.07
2023-05-24T08:19:08.624Z, 40.07
2023-05-24T08:20:08.621Z, 40.10
2023-05-24T08:21:08.586Z, 40.08
2023-05-24T08:22:08.659Z, 40.05
2023-05-24T08:23:08.651Z, 40.03
2023-05-24T08:24:09.712Z, 40.01
2023-05-24T08:25:08.667Z, 40.01
2023-05-24T08:26:08.707Z, 40.03
2023-05-24T08:27:08.679Z, 39.99
2023-05-24T08:28:08.784Z, 39.98
2023-05-24T08:29:08.702Z, 39.93
2023-05-24T08:30:08.729Z, 39.89
2023-05-24T08:31:08.710Z, 39.92
2023-05-24T08:32:08.862Z, 39.89
2023-05-24T08:33:08.797Z, 39.88
2023-05-24T08:34:08.803Z, 39.83
2023-05-24T08:35:20.146Z, 39.82
2023-05-24T08:36:08.797Z, 39.83
2023-05-24T08:37:08.803Z, 39.73
2023-05-24T08:38:08.836Z, 39.68
2023-05-24T08:39:08.885Z, 39.66
2023-05-24T08:40:08.884Z, 39.69
2023-05-24T08:41:08.867Z, 39.62
2023-05-24T08:42:10.405Z, 39.60
2023-05-24T08:43:08.878Z, 39.55
2023-05-24T08:44:08.872Z, 39.58
2023-05-24T08:45:08.938Z, 39.60
2023-05-24T08:46:08.945Z, 39.60
2023-05-24T08:47:08.945Z, 39.58
2023-05-24T08:48:09.007Z, 39.64
2023-05-24T08:49:08.962Z, 39.60
2023-05-24T08:50:09.010Z, 39.56
2023-05-24T08:51:08.965Z, 39.56
2023-05-24T08:52:09.050Z, 39.50
2023-05-24T08:53:09.019Z, 39.46
2023-05-24T08:54:09.067Z, 39.48
2023-05-24T08:55:09.035Z, 39.43
2023-05-24T08:56:09.099Z, 39.36
2023-05-24T08:57:09.080Z, 39.35
2023-05-24T08:58:09.125Z, 39.35
2023-05-24T08:59:09.136Z, 39.38
2023-05-24T09:00:09.105Z, 39.38
2023-05-24T09:01:09.158Z, 39.39
2023-05-24T09:02:09.192Z, 39.42
2023-05-24T09:03:09.281Z, 39.32
2023-05-24T09:04:09.194Z, 39.24
2023-05-24T09:05:09.224Z, 39.22
2023-05-24T09:06:09.197Z, 39.25
2023-05-24T09:07:09.199Z, 39.22
2023-05-24T09:08:09.178Z, 39.17
2023-05-24T09:09:09.192Z, 39.14
2023-05-24T09:10:09.183Z, 39.15
2023-05-24T09:11:09.209Z, 39.17
2023-05-24T09:12:09.198Z, 39.19
2023-05-24T09:13:09.221Z, 39.20
2023-05-24T09:14:09.256Z, 39.15
2023-05-24T09:15:09.256Z, 39.11
2023-05-24T09:16:09.387Z, 39.12
2023-05-24T09:17:09.327Z, 39.08
2023-05-24T09:18:09.375Z, 39.01
2023-05-24T09:19:09.328Z, 39.06
2023-05-24T09:20:09.430Z, 39.01
2023-05-24T09:21:09.332Z, 39.00
2023-05-24T09:22:09.348Z, 38.98
2023-05-24T09:23:09.359Z, 38.97
2023-05-24T09:24:09.357Z, 38.93
2023-05-24T09:25:09.376Z, 38.90
2023-05-24T09:26:09.392Z, 38.90
2023-05-24T09:27:09.409Z, 38.87
2023-05-24T09:28:09.399Z, 38.83
2023-05-24T09:29:09.459Z, 38.80
2023-05-24T09:30:09.444Z, 38.81
2023-05-24T09:31:09.524Z, 38.77
2023-05-24T09:32:09.474Z, 38.81
2023-05-24T09:33:09.564Z, 38.80
2023-05-24T09:34:09.510Z, 38.80
2023-05-24T09:35:09.778Z, 38.80
2023-05-24T09:36:09.508Z, 38.74
2023-05-24T09:37:09.504Z, 38.72
2023-05-24T09:38:09.502Z, 38.70
2023-05-24T09:39:09.528Z, 38.63
2023-05-24T09:40:09.528Z, 38.65
2023-05-24T09:41:09.536Z, 38.66
2023-05-24T09:42:09.646Z, 38.61
2023-05-24T09:43:09.650Z, 38.60
2023-05-24T09:44:09.608Z, 38.58
2023-05-24T09:45:09.738Z, 38.57
2023-05-24T09:46:09.609Z, 38.57
2023-05-24T09:47:09.769Z, 38.57
2023-05-24T09:48:09.678Z, 38.54
2023-05-24T09:49:09.687Z, 38.54
2023-05-24T09:50:09.676Z, 38.51
2023-05-24T09:51:09.765Z, 38.52
2023-05-24T09:52:09.737Z, 38.53
2023-05-24T09:53:09.691Z, 38.47
2023-05-24T09:54:09.709Z, 38.44
2023-05-24T09:55:09.810Z, 38.40
2023-05-24T09:56:09.779Z, 38.42
2023-05-24T09:57:09.811Z, 38.39
2023-05-24T09:58:09.801Z, 38.39
2023-05-24T09:59:09.868Z, 38.33
2023-05-24T10:00:09.809Z, 38.29
2023-05-24T10:01:09.864Z, 38.43
2023-05-24T10:02:09.842Z, 39.22
2023-05-24T10:03:09.895Z, 39.94
2023-05-24T10:04:10.545Z, 41.14
2023-05-24T10:05:09.861Z, 41.95
2023-05-24T10:06:09.915Z, 42.46
2023-05-24T10:07:09.888Z, 42.81
2023-05-24T10:08:09.880Z, 43.16
2023-05-24T10:09:10.013Z, 43.43
2023-05-24T10:10:09.896Z, 43.64
2023-05-24T10:11:09.981Z, 43.92
2023-05-24T10:12:09.954Z, 44.21
2023-05-24T10:13:10.005Z, 44.47
2023-05-24T10:14:09.998Z, 44.77
2023-05-24T10:15:10.261Z, 45.00
2023-05-24T10:16:10.025Z, 45.24
2023-05-24T10:17:10.044Z, 45.39
2023-05-24T10:19:10.066Z, 45.61
2023-05-24T10:20:10.092Z, 45.70
2023-05-24T10:21:10.079Z, 45.83
2023-05-24T10:22:10.045Z, 45.98
2023-05-24T10:23:10.062Z, 46.11
2023-05-24T10:24:10.068Z, 46.25
2023-05-24T10:25:10.098Z, 46.34
2023-05-24T10:26:10.105Z, 46.45
2023-05-24T10:27:10.178Z, 46.53
2023-05-24T10:28:10.155Z, 46.66
2023-05-24T10:29:10.169Z, 46.77
2023-05-24T10:30:12.998Z, 46.95
2023-05-24T10:31:10.291Z, 47.13
2023-05-24T10:32:10.160Z, 47.24
2023-05-24T10:33:10.183Z, 47.15
2023-05-24T10:34:10.183Z, 46.89
2023-05-24T10:35:10.204Z, 46.58
2023-05-24T10:36:10.279Z, 46.35
2023-05-24T10:37:10.247Z, 46.15
2023-05-24T10:38:10.276Z, 45.99
2023-05-24T10:39:10.276Z, 45.89
2023-05-24T10:40:10.319Z, 45.76
2023-05-24T10:41:10.303Z, 45.60
2023-05-24T10:41:46.753Z, 45.51
2023-05-24T10:42:10.317Z, 45.53
2023-05-24T10:43:10.359Z, 45.43
2023-05-24T10:44:10.404Z, 45.35
2023-05-24T10:45:10.367Z, 45.29
2023-05-24T10:46:10.407Z, 45.19
2023-05-24T10:47:10.404Z, 45.10
2023-05-24T10:48:10.477Z, 45.02
2023-05-24T10:49:10.422Z, 44.92
2023-05-24T10:50:10.429Z, 44.91
2023-05-24T10:51:10.406Z, 44.83
2023-05-24T10:52:10.465Z, 44.80
2023-05-24T10:53:10.451Z, 44.78
2023-05-24T10:54:10.475Z, 44.70
2023-05-24T10:55:10.464Z, 44.64
2023-05-24T10:56:10.490Z, 44.64
2023-05-24T10:57:10.510Z, 44.55
2023-05-24T10:58:10.559Z, 44.56
2023-05-24T10:59:10.525Z, 44.50
2023-05-24T11:00:13.618Z, 44.51
2023-05-24T11:01:10.558Z, 44.48
2023-05-24T11:02:10.629Z, 44.43
2023-05-24T11:03:10.807Z, 44.40
2023-05-24T11:04:10.587Z, 44.39
2023-05-24T11:05:10.635Z, 44.40
2023-05-24T11:06:10.601Z, 44.34
2023-05-24T11:07:10.628Z, 44.31
2023-05-24T11:08:10.624Z, 44.30
2023-05-24T11:09:10.612Z, 44.31
2023-05-24T11:10:10.675Z, 44.28
2023-05-24T11:11:23.434Z, 44.25
2023-05-24T11:12:10.634Z, 44.27
2023-05-24T11:13:10.717Z, 44.16
2023-05-24T11:14:10.714Z, 44.17
2023-05-24T11:15:10.765Z, 44.18
2023-05-24T11:16:10.795Z, 44.14
2023-05-24T11:17:10.713Z, 44.13
2023-05-24T11:18:10.774Z, 44.15
2023-05-24T11:19:10.715Z, 44.04
2023-05-24T11:20:10.889Z, 44.01
2023-05-24T11:21:10.779Z, 43.96
2023-05-24T11:22:10.771Z, 43.92
2023-05-24T11:23:10.848Z, 43.92
2023-05-24T11:24:10.820Z, 43.91
2023-05-24T11:25:10.805Z, 43.94
2023-05-24T11:26:10.828Z, 43.93
2023-05-24T11:27:10.851Z, 43.95
2023-05-24T11:28:10.935Z, 43.89
2023-05-24T11:29:10.856Z, 43.95
2023-05-24T11:30:10.887Z, 43.99
2023-05-24T11:31:10.927Z, 43.93
2023-05-24T11:32:11.180Z, 43.90
2023-05-24T11:33:10.940Z, 43.86
2023-05-24T11:34:10.912Z, 43.80
2023-05-24T11:35:10.999Z, 43.85
2023-05-24T11:36:10.973Z, 43.80
2023-05-24T11:37:10.971Z, 43.73
2023-05-24T11:38:10.962Z, 43.72
2023-05-24T11:39:10.988Z, 43.67
2023-05-24T11:40:10.997Z, 43.61
2023-05-24T11:41:10.983Z, 43.63
2023-05-24T11:42:11.037Z, 43.63
2023-05-24T11:43:11.017Z, 43.63
2023-05-24T11:44:11.091Z, 43.59
2023-05-24T11:45:11.018Z, 43.64
2023-05-24T11:46:11.117Z, 43.61
2023-05-24T11:47:11.077Z, 43.52
2023-05-24T11:48:11.149Z, 43.51
2023-05-24T11:49:11.120Z, 43.53
2023-05-24T11:50:11.112Z, 43.51
2023-05-24T11:51:11.150Z, 43.46
2023-05-24T11:52:11.137Z, 43.48
2023-05-24T11:53:11.201Z, 43.47
2023-05-24T11:54:11.172Z, 43.44
2023-05-24T11:55:11.243Z, 43.43
2023-05-24T11:56:11.221Z, 43.41
2023-05-24T11:57:11.285Z, 43.34
2023-05-24T11:58:11.244Z, 43.39
2023-05-24T11:59:11.287Z, 43.38
2023-05-24T12:00:11.275Z, 43.35
2023-05-24T12:01:11.304Z, 43.35
2023-05-24T12:02:11.306Z, 43.39
2023-05-24T12:03:11.431Z, 43.33
2023-05-24T12:04:11.396Z, 43.26
2023-05-24T12:05:11.284Z, 43.18
2023-05-24T12:06:11.327Z, 43.20
2023-05-24T12:07:11.322Z, 43.18
2023-05-24T12:08:12.625Z, 43.18
2023-05-24T12:09:11.368Z, 43.10
2023-05-24T12:10:11.409Z, 43.07
2023-05-24T12:11:11.395Z, 43.11
2023-05-24T12:12:11.410Z, 43.09
2023-05-24T12:13:11.397Z, 43.02
2023-05-24T12:14:11.385Z, 42.97
2023-05-24T12:15:11.460Z, 42.95
2023-05-24T12:16:11.475Z, 43.00
2023-05-24T12:17:11.429Z, 43.00
2023-05-24T12:18:11.621Z, 42.97
2023-05-24T12:19:20.133Z, 42.94
2023-05-24T12:20:11.500Z, 42.90
2023-05-24T12:21:11.545Z, 42.81
2023-05-24T12:22:11.528Z, 42.73
2023-05-24T12:23:11.509Z, 42.74
2023-05-24T12:24:11.556Z, 42.74
2023-05-24T12:25:11.528Z, 42.73
2023-05-24T12:26:11.519Z, 42.65
2023-05-24T12:27:11.533Z, 42.56
2023-05-24T12:28:11.607Z, 42.51